Laurel — ZCOV6 — position and weather

sailwx.info

Track history (hours):
 
Tides and Currents Weather Stations Pressure Air Temp Water Temp Dewpoint Dewpoint Depression Visibility Wind Speed Wind Dir Waves Ship Positions

Laurel

Last reported at 2016-Jun-23 05:33 UTC. Time now 2016-Jun-26 10:10 UTC.
Position N 08°52' W 079°31'.

Length 73 m; draft 3.7 m.

Type: Pleasure craft. MMSI: 319914000.

Date/timePositionNaut miles runAvg speedWind from/ knotsBaromVisibWave heightAir tempDewpointWater temp
2016-Jun-23 05:33N 08°52' W 079°31'9 6.5
2016-Jun-23 04:12N 08°60' W 079°36'0 0.3
2016-Jun-23 03:34N 08°60' W 079°36'1 1.3
2016-Jun-23 02:24N 09°01' W 079°37'3 3.9
2016-Jun-23 01:34N 09°03' W 079°39'10 9.5
2016-Jun-23 00:33N 09°07' W 079°48'1211.5
2016-Jun-22 23:33N 09°16' W 079°55'0 0.4
2016-Jun-22 22:33N 09°17' W 079°55'2 2.1
2016-Jun-22 21:33N 09°19' W 079°55'2 1.8
2016-Jun-22 20:33N 09°21' W 079°55'0 0.0
2016-Jun-22 19:33N 09°21' W 079°55'0 0.0
2016-Jun-22 18:33N 09°21' W 079°55'0 0.0
2016-Jun-22 17:30N 09°21' W 079°55'3 2.5
2016-Jun-22 16:28N 09°22' W 079°57'0 0.0
2016-Jun-22 15:24N 09°22' W 079°57'0 0.0
2016-Jun-22 14:13N 09°22' W 079°57'0 0.0
2016-Jun-22 13:31N 09°22' W 079°57'0 0.0
2016-Jun-22 12:19N 09°22' W 079°57'0 0.0
2016-Jun-22 11:22N 09°22' W 079°57'0 0.0
2016-Jun-22 10:16N 09°22' W 079°57'0 0.0
2016-Jun-22 09:31N 09°22' W 079°57'0 0.0
2016-Jun-22 08:16N 09°22' W 079°57'0 0.0
2016-Jun-22 07:31N 09°22' W 079°57'0 0.0
2016-Jun-22 06:31N 09°22' W 079°57'0 0.0
2016-Jun-22 05:28N 09°22' W 079°57'0 0.0
2016-Jun-22 04:25N 09°22' W 079°57'0 0.0
2016-Jun-22 03:25N 09°22' W 079°57'0 0.0
2016-Jun-22 02:31N 09°22' W 079°57'0 0.0
2016-Jun-22 01:25N 09°22' W 079°57'0 0.0
2016-Jun-22 00:25N 09°22' W 079°57'0 0.0
2016-Jun-21 23:25N 09°22' W 079°57'0 0.0
2016-Jun-21 22:31N 09°22' W 079°57'0 0.0
2016-Jun-21 21:28N 09°22' W 079°57'0 0.0
2016-Jun-21 20:31N 09°22' W 079°57'0 0.0
2016-Jun-21 19:28N 09°22' W 079°57'0 0.0
2016-Jun-21 18:19N 09°22' W 079°57'0 0.0
2016-Jun-21 17:31N 09°22' W 079°57'0 0.0
2016-Jun-21 16:28N 09°22' W 079°57'0 0.0
2016-Jun-21 15:25N 09°22' W 079°57'0 0.0
2016-Jun-21 14:31N 09°22' W 079°57'0 0.0
2016-Jun-21 13:31N 09°22' W 079°57'0 0.0
2016-Jun-21 12:30N 09°22' W 079°57'0 0.0
2016-Jun-21 11:22N 09°22' W 079°57'0 0.0
2016-Jun-21 10:31N 09°22' W 079°57'0 0.0
2016-Jun-21 09:27N 09°22' W 079°57'0 0.0
2016-Jun-21 08:25N 09°22' W 079°57'0 0.0
2016-Jun-21 07:31N 09°22' W 079°57'0 0.0
2016-Jun-21 04:31N 09°22' W 079°57'0 0.0
2016-Jun-21 03:31N 09°22' W 079°57'0 0.0
2016-Jun-21 02:31N 09°22' W 079°57'0 0.0
2016-Jun-21 01:31N 09°22' W 079°57'0 0.0
2016-Jun-21 00:25N 09°22' W 079°57'0 0.0
2016-Jun-20 23:19N 09°22' W 079°57'0 0.0
2016-Jun-20 22:31N 09°22' W 079°57'0 0.0
2016-Jun-20 21:25N 09°22' W 079°57'0 0.0
2016-Jun-20 20:19N 09°22' W 079°57'0 0.0
2016-Jun-20 19:25N 09°22' W 079°57'0 0.0
2016-Jun-20 18:31N 09°22' W 079°57'0 0.0
2016-Jun-20 17:31N 09°22' W 079°57'0 0.0
2016-Jun-20 16:25N 09°22' W 079°57'0 0.0
2016-Jun-20 15:28N 09°22' W 079°57'0 0.0
2016-Jun-20 14:28N 09°22' W 079°57'0 0.0
2016-Jun-20 13:28N 09°22' W 079°57'0 0.0
2016-Jun-20 12:28N 09°22' W 079°57'0 0.0
2016-Jun-20 11:25N 09°22' W 079°57'0 0.0
2016-Jun-20 10:13N 09°22' W 079°57'0 0.0
2016-Jun-20 09:22N 09°22' W 079°57'0 0.0
2016-Jun-20 08:28N 09°22' W 079°57'0 0.0
2016-Jun-20 07:25N 09°22' W 079°57'0 0.0
2016-Jun-20 06:31N 09°22' W 079°57'0 0.0
2016-Jun-20 05:28N 09°22' W 079°57'0 0.0
2016-Jun-20 04:31N 09°22' W 079°57'0 0.0
2016-Jun-20 03:31N 09°22' W 079°57'0 0.0
2016-Jun-20 02:33N 09°22' W 079°57'0 0.0
2016-Jun-20 01:31N 09°22' W 079°57'0 0.0
2016-Jun-20 00:31N 09°22' W 079°57'0 0.0
2016-Jun-19 23:16N 09°22' W 079°57'2 2.1
2016-Jun-19 22:33N 09°23' W 079°56'1110.8
2016-Jun-19 21:33N 09°33' W 079°52'  
2016-Jun-15 16:08N 26°22' W 079°44'5 8.6
2016-Jun-15 15:31N 26°27' W 079°47'  
Track history (hours):
 
Tides and Currents Weather Stations Pressure Air Temp Water Temp Dewpoint Dewpoint Depression Visibility Wind Speed Wind Dir Waves Ship Positions

Laurel

Last reported at 2016-Jun-23 05:33 UTC. Time now 2016-Jun-26 10:10 UTC.
Position N 08°52' W 079°31'.

Length 73 m; draft 3.7 m.

Type: Pleasure craft. MMSI: 319914000.

Date/timePositionNaut miles runAvg speedWind from/ knotsBaromVisibWave heightAir tempDewpointWater temp
2016-Jun-23 05:33N 08°52' W 079°31'9 6.5
2016-Jun-23 04:12N 08°60' W 079°36'0 0.3
2016-Jun-23 03:34N 08°60' W 079°36'1 1.3
2016-Jun-23 02:24N 09°01' W 079°37'3 3.9
2016-Jun-23 01:34N 09°03' W 079°39'10 9.5
2016-Jun-23 00:33N 09°07' W 079°48'1211.5
2016-Jun-22 23:33N 09°16' W 079°55'0 0.4
2016-Jun-22 22:33N 09°17' W 079°55'2 2.1
2016-Jun-22 21:33N 09°19' W 079°55'2 1.8
2016-Jun-22 20:33N 09°21' W 079°55'0 0.0
2016-Jun-22 19:33N 09°21' W 079°55'0 0.0
2016-Jun-22 18:33N 09°21' W 079°55'0 0.0
2016-Jun-22 17:30N 09°21' W 079°55'3 2.5
2016-Jun-22 16:28N 09°22' W 079°57'0 0.0
2016-Jun-22 15:24N 09°22' W 079°57'0 0.0
2016-Jun-22 14:13N 09°22' W 079°57'0 0.0
2016-Jun-22 13:31N 09°22' W 079°57'0 0.0
2016-Jun-22 12:19N 09°22' W 079°57'0 0.0
2016-Jun-22 11:22N 09°22' W 079°57'0 0.0
2016-Jun-22 10:16N 09°22' W 079°57'0 0.0
2016-Jun-22 09:31N 09°22' W 079°57'0 0.0
2016-Jun-22 08:16N 09°22' W 079°57'0 0.0
2016-Jun-22 07:31N 09°22' W 079°57'0 0.0
2016-Jun-22 06:31N 09°22' W 079°57'0 0.0
2016-Jun-22 05:28N 09°22' W 079°57'0 0.0
2016-Jun-22 04:25N 09°22' W 079°57'0 0.0
2016-Jun-22 03:25N 09°22' W 079°57'0 0.0
2016-Jun-22 02:31N 09°22' W 079°57'0 0.0
2016-Jun-22 01:25N 09°22' W 079°57'0 0.0
2016-Jun-22 00:25N 09°22' W 079°57'0 0.0
2016-Jun-21 23:25N 09°22' W 079°57'0 0.0
2016-Jun-21 22:31N 09°22' W 079°57'0 0.0
2016-Jun-21 21:28N 09°22' W 079°57'0 0.0
2016-Jun-21 20:31N 09°22' W 079°57'0 0.0
2016-Jun-21 19:28N 09°22' W 079°57'0 0.0
2016-Jun-21 18:19N 09°22' W 079°57'0 0.0
2016-Jun-21 17:31N 09°22' W 079°57'0 0.0
2016-Jun-21 16:28N 09°22' W 079°57'0 0.0
2016-Jun-21 15:25N 09°22' W 079°57'0 0.0
2016-Jun-21 14:31N 09°22' W 079°57'0 0.0
2016-Jun-21 13:31N 09°22' W 079°57'0 0.0
2016-Jun-21 12:30N 09°22' W 079°57'0 0.0
2016-Jun-21 11:22N 09°22' W 079°57'0 0.0
2016-Jun-21 10:31N 09°22' W 079°57'0 0.0
2016-Jun-21 09:27N 09°22' W 079°57'0 0.0
2016-Jun-21 08:25N 09°22' W 079°57'0 0.0
2016-Jun-21 07:31N 09°22' W 079°57'0 0.0
2016-Jun-21 04:31N 09°22' W 079°57'0 0.0
2016-Jun-21 03:31N 09°22' W 079°57'0 0.0
2016-Jun-21 02:31N 09°22' W 079°57'0 0.0
2016-Jun-21 01:31N 09°22' W 079°57'0 0.0
2016-Jun-21 00:25N 09°22' W 079°57'0 0.0
2016-Jun-20 23:19N 09°22' W 079°57'0 0.0
2016-Jun-20 22:31N 09°22' W 079°57'0 0.0
2016-Jun-20 21:25N 09°22' W 079°57'0 0.0
2016-Jun-20 20:19N 09°22' W 079°57'0 0.0
2016-Jun-20 19:25N 09°22' W 079°57'0 0.0
2016-Jun-20 18:31N 09°22' W 079°57'0 0.0
2016-Jun-20 17:31N 09°22' W 079°57'0 0.0
2016-Jun-20 16:25N 09°22' W 079°57'0 0.0
2016-Jun-20 15:28N 09°22' W 079°57'0 0.0
2016-Jun-20 14:28N 09°22' W 079°57'0 0.0
2016-Jun-20 13:28N 09°22' W 079°57'0 0.0
2016-Jun-20 12:28N 09°22' W 079°57'0 0.0
2016-Jun-20 11:25N 09°22' W 079°57'0 0.0
2016-Jun-20 10:13N 09°22' W 079°57'0 0.0
2016-Jun-20 09:22N 09°22' W 079°57'0 0.0
2016-Jun-20 08:28N 09°22' W 079°57'0 0.0
2016-Jun-20 07:25N 09°22' W 079°57'0 0.0
2016-Jun-20 06:31N 09°22' W 079°57'0 0.0
2016-Jun-20 05:28N 09°22' W 079°57'0 0.0
2016-Jun-20 04:31N 09°22' W 079°57'0 0.0
2016-Jun-20 03:31N 09°22' W 079°57'0 0.0
2016-Jun-20 02:33N 09°22' W 079°57'0 0.0
2016-Jun-20 01:31N 09°22' W 079°57'0 0.0
2016-Jun-20 00:31N 09°22' W 079°57'0 0.0
2016-Jun-19 23:16N 09°22' W 079°57'2 2.1
2016-Jun-19 22:33N 09°23' W 079°56'1110.8
2016-Jun-19 21:33N 09°33' W 079°52'  
2016-Jun-15 16:08N 26°22' W 079°44'5 8.6
2016-Jun-15 15:31N 26°27' W 079°47'  

Dump ship's entire track history